Time;durP1;ratioP1;P1;durP2;ratioP2;P2;SDS_P1;SDS_P2;PMS_P1;PMS_P2;Temp;Humidity;BMP_temperature;BMP_pressure;BME280_temperature;BME280_humidity;BME280_pressure;Samples;Min_cycle;Max_cycle;Signal;HPM_P1;HPM_P2
2023/03/18 00:03:06;;;;;;;7.30;3.80;;;;;;;5.69;53.77;95791.19;10285255;28;21123;-61
2023/03/18 00:08:06;;;;;;;11.27;4.77;;;;;;;5.72;53.76;95792.66;10284997;28;20521;-60
2023/03/18 00:13:06;;;;;;;10.57;5.33;;;;;;;5.62;53.88;95810.94;10287523;28;20202;-60
2023/03/18 00:18:07;;;;;;;10.30;4.60;;;;;;;5.66;53.74;95803.66;10292063;28;20206;-59
2023/03/18 00:23:08;;;;;;;13.23;5.27;;;;;;;5.58;53.96;95808.78;10292457;28;20667;-59
2023/03/18 00:28:08;;;;;;;11.50;5.53;;;;;;;5.61;53.91;95817.09;10291846;28;20322;-60
2023/03/18 00:33:09;;;;;;;11.47;4.00;;;;;;;5.74;53.38;95808.13;10291926;28;20269;-60
2023/03/18 00:38:19;;;;;;;9.07;5.73;;;;;;;5.72;52.45;95801.28;10291844;28;20195;-61
2023/03/18 00:43:21;;;;;;;10.50;5.37;;;;;;;5.80;52.74;95800.53;10291711;28;20270;-58
2023/03/18 00:48:23;;;;;;;9.30;3.80;;;;;;;5.83;52.23;95782.03;10289557;28;20317;-60
2023/03/18 00:53:24;;;;;;;8.13;3.67;;;;;;;5.84;52.31;95786.28;10291038;28;20610;-60
2023/03/18 00:58:25;;;;;;;8.93;4.50;;;;;;;5.72;52.65;95777.88;10289479;28;20206;-58
2023/03/18 01:03:26;;;;;;;7.63;3.70;;;;;;;5.73;52.23;95786.50;10289451;28;20669;-60
2023/03/18 01:08:27;;;;;;;7.70;4.97;;;;;;;5.63;52.22;95764.97;10290336;28;20226;-61
2023/03/18 01:13:28;;;;;;;8.67;4.43;;;;;;;5.66;52.71;95765.50;10273404;28;20245;-60
2023/03/18 01:18:29;;;;;;;13.63;5.50;;;;;;;5.60;52.49;95757.50;10288835;28;20202;-60
2023/03/18 01:23:29;;;;;;;14.53;4.37;;;;;;;5.57;52.16;95765.59;10289667;28;20191;-60
2023/03/18 01:28:31;;;;;;;5.53;3.73;;;;;;;5.56;52.53;95769.13;10288082;28;20222;-60
2023/03/18 01:33:32;;;;;;;7.27;3.70;;;;;;;5.55;52.18;95778.72;10287764;28;20674;-58
2023/03/18 01:38:33;;;;;;;9.20;4.13;;;;;;;5.41;52.62;95776.66;10272143;28;20297;-59
2023/03/18 01:43:42;;;;;;;9.47;3.43;;;;;;;5.38;52.90;95743.19;10272032;28;20282;-59
2023/03/18 01:48:43;;;;;;;7.70;4.10;;;;;;;5.25;53.47;95749.53;10287666;28;21012;-57
2023/03/18 01:53:46;;;;;;;5.23;3.90;;;;;;;5.18;53.25;95754.50;10271438;28;20198;-57
2023/03/18 01:58:50;;;;;;;6.83;4.10;;;;;;;5.16;53.38;95756.44;10271161;28;20219;-58
2023/03/18 02:03:51;;;;;;;7.43;4.83;;;;;;;5.16;53.53;95743.44;10254919;28;20579;-57
2023/03/18 02:08:51;;;;;;;7.93;4.03;;;;;;;5.13;53.63;95761.09;10270089;28;20222;-57
2023/03/18 02:13:53;;;;;;;7.77;3.87;;;;;;;5.23;53.00;95772.22;10288145;28;20191;-58
2023/03/18 02:18:58;;;;;;;13.07;2.90;;;;;;;5.15;52.98;95777.34;10286059;28;20709;-56
2023/03/18 02:24:18;;;;;;;8.23;3.60;;;;;;;5.14;53.09;95781.72;10286588;28;20210;-56
2023/03/18 02:29:20;;;;;;;10.47;4.50;;;;;;;5.19;52.94;95789.06;10254119;28;20679;-59
2023/03/18 02:34:28;;;;;;;9.87;3.87;;;;;;;5.09;53.12;95770.94;10270354;28;20191;-59
2023/03/18 02:39:30;;;;;;;7.10;3.70;;;;;;;5.08;53.07;95765.91;10268797;28;20264;-59
2023/03/18 02:44:39;;;;;;;8.00;4.70;;;;;;;5.06;53.00;95766.06;10285882;28;20732;-58
2023/03/18 02:50:11;;;;;;;7.13;3.60;;;;;;;5.05;52.84;95776.59;10273525;28;20246;-57
2023/03/18 02:55:12;;;;;;;7.37;4.37;;;;;;;5.05;52.81;95779.19;10285741;28;20193;-59
2023/03/18 03:00:13;;;;;;;7.90;4.07;;;;;;;5.09;53.18;95793.50;10285243;28;20210;-59
2023/03/18 03:05:14;;;;;;;6.50;3.40;;;;;;;5.07;52.78;95785.88;10269276;28;20218;-59
2023/03/18 03:10:14;;;;;;;5.37;3.03;;;;;;;5.00;52.62;95795.19;10285291;28;20289;-59
2023/03/18 03:15:18;;;;;;;14.17;4.00;;;;;;;4.95;53.08;95797.41;10286173;28;20677;-59
2023/03/18 03:20:23;;;;;;;5.87;4.07;;;;;;;4.89;53.27;95808.38;10285099;28;20210;-57
2023/03/18 03:25:26;;;;;;;11.73;4.83;;;;;;;4.82;53.71;95818.47;10286096;28;20218;-59
2023/03/18 03:30:26;;;;;;;6.83;3.90;;;;;;;4.78;54.06;95830.13;10268509;28;20253;-59
2023/03/18 03:35:27;;;;;;;6.53;3.00;;;;;;;4.76;53.89;95814.69;10286049;28;20737;-58
2023/03/18 03:40:27;;;;;;;7.50;4.50;;;;;;;4.70;54.45;95827.41;10268299;28;20199;-59
2023/03/18 03:45:28;;;;;;;7.30;4.38;;;;;;;4.60;54.44;95849.00;10285728;28;20229;-56
2023/03/18 03:50:28;;;;;;;12.93;4.93;;;;;;;4.55;55.03;95852.97;10291315;28;20701;-57
2023/03/18 03:55:30;;;;;;;12.37;5.43;;;;;;;4.51;54.87;95849.03;10276074;28;20187;-58
2023/03/18 04:00:31;;;;;;;5.83;3.27;;;;;;;4.51;54.73;95846.44;10291883;28;20237;-57
2023/03/18 04:05:32;;;;;;;7.23;3.73;;;;;;;4.43;55.01;95862.72;10290830;28;20606;-57
2023/03/18 04:10:35;;;;;;;7.27;4.30;;;;;;;4.36;55.24;95859.84;10291538;28;20213;-57
2023/03/18 04:15:36;;;;;;;8.60;4.20;;;;;;;4.41;54.73;95856.81;10291505;28;20191;-57
2023/03/18 04:20:43;;;;;;;11.30;4.47;;;;;;;4.30;55.08;95883.72;10291339;28;20221;-54
2023/03/18 04:25:59;;;;;;;9.97;4.53;;;;;;;4.28;55.20;95880.47;10291897;28;20234;-58
2023/03/18 04:30:59;;;;;;;10.90;4.70;;;;;;;4.26;55.59;95880.59;10291111;28;20211;-53
2023/03/18 04:36:00;;;;;;;8.33;4.30;;;;;;;4.36;55.43;95884.94;10290652;28;20186;-55
2023/03/18 04:41:01;;;;;;;8.87;4.40;;;;;;;4.25;55.77;95904.88;10290492;28;20210;-57
2023/03/18 04:46:01;;;;;;;12.70;5.47;;;;;;;4.27;55.47;95917.69;10290560;28;20219;-56
2023/03/18 04:51:02;;;;;;;5.33;2.97;;;;;;;4.20;55.64;95933.00;10289495;28;20230;-57
2023/03/18 04:56:05;;;;;;;8.67;4.33;;;;;;;4.21;55.47;95924.28;10290033;28;20194;-58
2023/03/18 05:01:15;;;;;;;11.40;5.57;;;;;;;4.17;56.10;95925.50;10272533;28;20609;-56
2023/03/18 05:06:21;;;;;;;8.90;3.90;;;;;;;4.17;55.90;95925.50;10363850;22;20822;-61
2023/03/18 05:11:28;;;;;;;7.57;3.80;;;;;;;4.08;56.49;95924.53;10370256;28;20189;-63
2023/03/18 05:16:30;;;;;;;10.47;5.40;;;;;;;3.95;57.31;95936.09;10376137;28;20200;-63
2023/03/18 05:21:30;;;;;;;10.03;5.30;;;;;;;4.09;56.73;95936.53;10411646;28;20189;-61
2023/03/18 05:26:32;;;;;;;5.77;3.23;;;;;;;4.06;57.14;95951.56;10393819;28;20228;-59
2023/03/18 05:31:33;;;;;;;9.83;4.30;;;;;;;4.09;57.32;95951.28;10393652;28;20249;-61
2023/03/18 05:36:35;;;;;;;5.50;3.87;;;;;;;4.14;57.13;95962.06;10393320;28;20212;-60
2023/03/18 05:41:39;;;;;;;9.53;4.77;;;;;;;4.22;57.19;95969.97;10407927;28;20663;-62
2023/03/18 05:46:43;;;;;;;7.90;4.27;;;;;;;4.23;56.86;95978.56;10392500;28;20609;-59
2023/03/18 05:51:49;;;;;;;7.47;4.07;;;;;;;4.39;56.45;95957.28;10409384;28;20580;-61
2023/03/18 05:57:01;;;;;;;6.97;4.17;;;;;;;4.27;56.80;95965.22;10392702;28;20197;-62
2023/03/18 06:02:02;;;;;;;8.43;4.50;;;;;;;4.33;56.57;95979.38;10393048;28;20189;-62
2023/03/18 06:07:04;;;;;;;7.60;4.70;;;;;;;4.35;57.03;95993.06;10391685;28;20319;-62
2023/03/18 06:12:06;;;;;;;8.37;3.73;;;;;;;4.34;57.34;95998.38;10391979;28;20189;-62
2023/03/18 06:17:06;;;;;;;9.40;4.70;;;;;;;4.34;58.10;96012.16;10392000;28;20197;-62
2023/03/18 06:22:06;;;;;;;9.27;4.57;;;;;;;4.50;57.69;96008.19;10391965;28;20223;-63
2023/03/18 06:27:07;;;;;;;8.87;4.80;;;;;;;4.74;56.97;96008.59;10408268;28;20275;-63
2023/03/18 06:32:09;;;;;;;5.50;3.57;;;;;;;4.78;57.56;96027.31;10391478;28;20196;-62
2023/03/18 06:37:10;;;;;;;9.77;5.07;;;;;;;4.91;57.57;96030.44;10391420;28;20200;-63
2023/03/18 06:42:11;;;;;;;8.80;5.60;;;;;;;5.08;57.23;96026.31;10374623;28;20951;-63
2023/03/18 06:47:22;;;;;;;8.93;4.30;;;;;;;5.31;57.14;96044.19;10390896;28;20223;-64
2023/03/18 06:52:30;;;;;;;9.77;3.70;;;;;;;5.36;57.09;96032.41;10408238;28;20193;-64
2023/03/18 06:57:40;;;;;;;7.17;5.13;;;;;;;5.34;58.00;96044.72;10390583;28;20276;-63
2023/03/18 07:02:42;;;;;;;6.67;4.50;;;;;;;5.66;57.10;96053.09;10390571;28;20270;-63
2023/03/18 07:07:45;;;;;;;9.70;5.03;;;;;;;5.90;56.99;96052.59;10388049;28;20349;-60
2023/03/18 07:12:46;;;;;;;6.97;4.00;;;;;;;6.07;56.47;96061.44;10367563;28;20284;-64
2023/03/18 07:17:48;;;;;;;13.43;5.30;;;;;;;6.63;55.73;96074.41;10366615;28;20200;-63
2023/03/18 07:22:50;;;;;;;8.50;4.37;;;;;;;6.87;54.16;96034.75;10379231;28;20201;-64
2023/03/18 07:27:51;;;;;;;11.50;4.33;;;;;;;6.98;54.31;96034.53;10362367;28;20582;-63
2023/03/18 07:32:52;;;;;;;7.87;4.00;;;;;;;7.60;53.74;96036.25;10380004;28;20216;-63
2023/03/18 07:37:52;;;;;;;8.23;4.07;;;;;;;7.95;52.10;96019.63;10362747;28;20278;-64
2023/03/18 07:42:53;;;;;;;8.13;4.50;;;;;;;8.40;52.48;96025.47;10379833;28;20197;-63
2023/03/18 07:47:53;;;;;;;6.03;4.03;;;;;;;8.75;51.02;96013.97;10401881;28;20258;-63
2023/03/18 07:52:53;;;;;;;6.80;3.20;;;;;;;8.57;51.46;96010.69;10380606;28;20694;-63
2023/03/18 07:57:54;;;;;;;9.87;4.27;;;;;;;9.05;52.56;96036.97;10378297;28;20615;-62
2023/03/18 08:02:54;;;;;;;7.73;4.00;;;;;;;9.29;51.67;96020.47;10378147;28;20687;-64
2023/03/18 08:07:54;;;;;;;9.63;4.97;;;;;;;9.55;50.84;96030.72;10385435;28;20741;-63
2023/03/18 08:12:56;;;;;;;8.87;4.20;;;;;;;9.64;51.33;96031.53;10419635;28;20751;-61
2023/03/18 08:17:56;;;;;;;7.60;3.97;;;;;;;9.77;51.28;96028.38;10415204;28;20262;-64
2023/03/18 08:22:57;;;;;;;7.63;4.03;;;;;;;9.81;49.94;96014.78;10412501;28;20258;-64
2023/03/18 08:27:57;;;;;;;7.63;3.87;;;;;;;10.19;50.07;96027.25;10416471;28;20238;-62
2023/03/18 08:32:58;;;;;;;8.43;4.00;;;;;;;10.25;48.81;96000.38;10407076;28;20210;-63
2023/03/18 08:37:59;;;;;;;9.80;4.30;;;;;;;9.93;50.42;96015.25;10390152;28;20262;-61
2023/03/18 08:42:59;;;;;;;6.20;3.57;;;;;;;10.18;49.77;96020.38;10388680;28;20204;-60
2023/03/18 08:47:59;;;;;;;7.50;3.83;;;;;;;10.24;50.11;96040.63;10372675;28;20331;-61
2023/03/18 08:53:00;;;;;;;6.77;3.37;;;;;;;10.33;50.10;96037.00;10387997;28;20192;-61
2023/03/18 08:58:00;;;;;;;8.07;3.57;;;;;;;10.62;49.83;96043.41;10409329;28;20204;-62
2023/03/18 09:03:02;;;;;;;5.97;3.87;;;;;;;11.27;48.26;96038.69;10411244;28;20183;-61
2023/03/18 09:08:02;;;;;;;7.17;3.80;;;;;;;11.71;47.19;96011.66;10410661;28;20597;-62
2023/03/18 09:13:04;;;;;;;9.75;4.10;;;;;;;12.00;46.95;96017.94;10410327;28;20196;-61
2023/03/18 09:18:04;;;;;;;10.25;3.88;;;;;;;12.54;47.03;96039.56;10410310;28;20266;-61
2023/03/18 09:23:05;;;;;;;8.35;3.75;;;;;;;12.77;46.94;96040.25;10410546;28;20211;-62
2023/03/18 09:28:06;;;;;;;13.68;3.63;;;;;;;12.42;46.98;96021.69;10401327;28;20592;-61
2023/03/18 09:33:07;;;;;;;5.93;3.53;;;;;;;12.95;45.77;96010.88;10406895;28;21636;-61
2023/03/18 09:38:14;;;;;;;3.47;2.67;;;;;;;12.74;46.20;96003.81;10377029;28;20220;-64
2023/03/18 09:43:24;;;;;;;6.68;3.90;;;;;;;13.77;45.39;96027.09;10408214;28;20255;-63
2023/03/18 09:48:42;;;;;;;7.43;4.18;;;;;;;14.93;43.92;96007.91;10408566;28;20233;-63
2023/03/18 09:53:52;;;;;;;8.32;4.80;;;;;;;14.16;48.37;96090.72;10391735;28;20261;-64
2023/03/18 09:58:58;;;;;;;7.00;3.22;;;;;;;14.03;48.44;96096.75;10407699;28;20235;-63
2023/03/18 10:04:06;;;;;;;7.63;3.80;;;;;;;14.76;46.97;96080.47;10408908;28;20185;-64
2023/03/18 10:09:17;;;;;;;10.30;3.67;;;;;;;14.86;45.28;96028.16;10407087;28;20698;-64
2023/03/18 10:14:53;;;;;;;5.70;3.35;;;;;;;15.14;46.05;96070.22;10408037;28;20714;-60
2023/03/18 10:19:56;;;;;;;5.47;3.70;;;;;;;14.19;48.25;96079.78;10406186;28;20642;-63
2023/03/18 10:25:15;;;;;;;5.93;3.17;;;;;;;14.08;50.03;96121.47;10407195;28;20311;-64
2023/03/18 10:30:35;;;;;;;5.53;2.70;;;;;;;14.54;48.71;96109.56;10408106;28;20197;-61
2023/03/18 10:35:43;;;;;;;7.88;3.42;;;;;;;14.53;49.46;96130.84;10406510;28;20571;-63
2023/03/18 10:40:45;;;;;;;4.90;2.95;;;;;;;14.92;49.80;96148.69;10406212;28;20667;-62
2023/03/18 10:45:57;;;;;;;6.53;3.05;;;;;;;14.43;49.84;96121.47;10384596;28;20233;-61
2023/03/18 10:51:18;;;;;;;4.85;3.40;;;;;;;14.72;49.97;96131.97;10380847;28;20181;-63
2023/03/18 10:56:18;;;;;;;6.00;3.20;;;;;;;14.74;49.86;96136.03;10382012;28;20218;-63
2023/03/18 11:01:21;;;;;;;7.88;3.10;;;;;;;14.96;51.34;96172.81;10382717;28;20189;-64
2023/03/18 11:06:28;;;;;;;3.25;2.38;;;;;;;14.38;51.74;96155.50;10364336;28;20354;-64
2023/03/18 11:11:32;;;;;;;7.30;3.72;;;;;;;14.33;49.44;96093.84;10386202;28;20211;-61
2023/03/18 11:22:24;;;;;;;10.63;3.78;;;;;;;13.85;48.89;96071.69;10323343;28;20700;-64
2023/03/18 11:27:28;;;;;;;10.45;3.95;;;;;;;14.19;46.63;96042.91;10316988;28;20235;-64
2023/03/18 11:32:30;;;;;;;8.25;4.07;;;;;;;14.13;45.93;96025.25;10307660;28;20657;-64
2023/03/18 11:37:38;;;;;;;7.00;3.38;;;;;;;13.19;47.07;96009.66;10324736;28;20907;-63
2023/03/18 11:42:40;;;;;;;8.30;4.10;;;;;;;13.29;46.99;96027.75;10323618;28;20629;-64
2023/03/18 11:47:42;;;;;;;11.63;3.97;;;;;;;13.45;46.76;96024.06;10324566;28;20222;-64
2023/03/18 11:52:54;;;;;;;8.38;4.88;;;;;;;13.49;48.30;96062.16;10324646;28;20198;-64
2023/03/18 11:58:31;;;;;;;10.20;4.90;;;;;;;13.14;47.84;96037.53;10324439;28;20214;-64
2023/03/18 12:03:52;;;;;;;10.82;4.63;;;;;;;12.74;47.70;96024.00;10322668;28;20197;-64
2023/03/18 12:09:04;;;;;;;14.45;5.63;;;;;;;13.20;47.15;96029.72;10309420;28;20580;-64
2023/03/18 12:14:37;;;;;;;10.00;4.40;;;;;;;13.51;46.99;96028.56;10332099;28;20205;-64
2023/03/18 12:19:50;;;;;;;9.25;5.25;;;;;;;13.15;46.96;96016.28;10325014;28;20230;-64
2023/03/18 12:25:21;;;;;;;11.73;4.72;;;;;;;13.13;47.98;96039.34;10309047;28;20256;-64
2023/03/18 12:30:48;;;;;;;13.23;5.03;;;;;;;13.93;47.94;96070.72;10322712;28;20705;-64
2023/03/18 12:36:08;;;;;;;7.72;4.53;;;;;;;13.59;48.61;96061.00;10308144;28;20221;-64
2023/03/18 12:41:16;;;;;;;10.07;4.72;;;;;;;13.70;48.51;96063.91;10299863;28;20207;-63
2023/03/18 12:46:41;;;;;;;10.98;4.57;;;;;;;14.06;48.72;96084.00;10273695;28;20644;-63
2023/03/18 12:52:05;;;;;;;10.02;4.55;;;;;;;14.61;47.68;96072.72;10276305;28;20237;-64
2023/03/18 12:57:25;;;;;;;10.98;5.10;;;;;;;14.35;47.94;96071.56;10307219;28;20410;-64
2023/03/18 13:02:51;;;;;;;12.90;4.00;;;;;;;14.12;48.39;96066.59;10310134;28;20201;-64
2023/03/18 13:08:29;;;;;;;7.78;4.50;;;;;;;14.76;48.00;96091.00;10329696;28;20249;-65
2023/03/18 13:13:32;;;;;;;9.32;4.40;;;;;;;15.15;47.77;96094.75;10316021;28;20190;-64
2023/03/18 13:18:45;;;;;;;8.00;4.32;;;;;;;15.35;47.56;96092.16;10298782;28;20226;-65
2023/03/18 13:24:06;;;;;;;9.32;4.38;;;;;;;15.29;48.04;96085.03;10344162;28;20256;-67
2023/03/18 13:29:17;;;;;;;7.40;4.65;;;;;;;15.56;49.00;96125.47;10312007;28;20225;-65
2023/03/18 13:34:39;;;;;;;13.52;4.60;;;;;;;15.96;48.35;96101.72;10329351;28;20713;-65
2023/03/18 13:40:01;;;;;;;8.57;4.45;;;;;;;15.54;46.84;96039.56;10328578;28;20269;-65
2023/03/18 13:45:15;;;;;;;10.35;4.30;;;;;;;15.53;47.15;96049.31;10328949;28;20217;-65
2023/03/18 13:50:18;;;;;;;7.28;4.38;;;;;;;15.51;45.67;96009.94;10311319;28;20696;-65
2023/03/18 13:55:34;;;;;;;13.25;5.35;;;;;;;15.98;46.12;96032.81;10327801;28;20198;-65
2023/03/18 14:00:39;;;;;;;10.50;4.55;;;;;;;16.87;44.18;96011.91;10310404;28;20703;-66
2023/03/18 14:05:41;;;;;;;6.70;4.40;;;;;;;16.59;45.17;96024.44;10327425;28;20222;-66
2023/03/18 14:10:41;;;;;;;8.00;4.05;;;;;;;16.64;45.90;96033.59;10326332;28;20695;-66
2023/03/18 14:15:43;;;;;;;8.68;4.05;;;;;;;18.07;44.71;96053.31;10324598;28;20198;-65
2023/03/18 14:20:43;;;;;;;9.38;4.07;;;;;;;18.14;43.42;96018.75;10323296;28;20234;-66
2023/03/18 14:25:47;;;;;;;6.15;4.32;;;;;;;18.11;44.12;96030.59;10307141;28;20607;-64
2023/03/18 14:30:56;;;;;;;7.15;4.32;;;;;;;18.63;42.64;96003.66;10318296;28;20229;-65
2023/03/18 14:36:02;;;;;;;8.55;4.38;;;;;;;18.09;43.20;95992.91;10324511;28;20297;-65
2023/03/18 14:41:12;;;;;;;6.65;4.03;;;;;;;17.95;42.75;95980.88;10322183;28;20714;-65
2023/03/18 14:46:17;;;;;;;11.88;4.72;;;;;;;18.28;42.97;95995.56;10300527;28;20233;-65
2023/03/18 14:51:22;;;;;;;8.20;4.60;;;;;;;17.03;44.25;95984.94;10310583;28;21463;-66
2023/03/18 14:56:27;;;;;;;11.50;4.97;;;;;;;17.24;44.43;95991.69;10304306;28;20664;-65
2023/03/18 15:01:39;;;;;;;6.82;4.43;;;;;;;18.16;42.43;95977.75;10324726;28;20288;-65
2023/03/18 15:06:39;;;;;;;11.63;4.93;;;;;;;18.37;42.88;96007.47;10302693;28;20591;-65
2023/03/18 15:11:43;;;;;;;12.07;5.22;;;;;;;17.64;42.30;95961.38;10316575;28;20202;-65
2023/03/18 15:16:51;;;;;;;10.40;4.43;;;;;;;18.09;40.74;95937.25;10314891;28;20224;-65
2023/03/18 15:21:52;;;;;;;10.88;6.10;;;;;;;16.36;43.79;95952.78;10312730;28;20206;-65
2023/03/18 15:27:04;;;;;;;9.27;5.20;;;;;;;15.73;44.89;95958.69;10322371;28;20680;-65
2023/03/18 15:32:14;;;;;;;11.07;6.38;;;;;;;15.48;44.50;95964.63;10322133;28;20200;-65
2023/03/18 15:37:33;;;;;;;13.15;6.63;;;;;;;14.14;46.67;95975.03;10317257;28;20249;-64
2023/03/18 15:42:34;;;;;;;15.57;6.90;;;;;;;14.12;46.39;95969.16;10321119;28;20196;-65
2023/03/18 15:47:34;;;;;;;13.35;6.95;;;;;;;13.67;46.96;95972.16;10312900;28;20231;-65
2023/03/18 15:52:40;;;;;;;12.90;6.88;;;;;;;13.00;48.50;95997.16;10319471;28;20217;-66
2023/03/18 15:57:42;;;;;;;11.32;7.40;;;;;;;12.18;50.49;96025.44;10331638;28;20218;-66
2023/03/18 16:02:42;;;;;;;13.43;5.20;;;;;;;11.14;52.87;96054.19;10329817;28;20202;-67
2023/03/18 16:07:42;;;;;;;12.00;7.80;;;;;;;10.80;53.69;96081.63;10322324;28;20214;-67
2023/03/18 16:12:44;;;;;;;14.23;7.57;;;;;;;10.32;54.57;96099.97;10320962;28;20208;-66
2023/03/18 16:17:47;;;;;;;19.70;8.30;;;;;;;10.03;55.90;96113.66;10311264;28;20237;-67
2023/03/18 16:22:48;;;;;;;20.73;9.73;;;;;;;9.98;55.93;96114.16;10328292;28;20236;-67
2023/03/18 16:27:50;;;;;;;19.77;9.13;;;;;;;9.87;56.23;96114.53;10328094;28;20221;-67
2023/03/18 16:32:51;;;;;;;15.73;9.00;;;;;;;9.75;56.86;96143.63;10331882;28;20201;-66
2023/03/18 16:37:52;;;;;;;19.23;9.30;;;;;;;9.62;57.10;96144.13;10330824;28;20241;-66
2023/03/18 16:42:53;;;;;;;18.73;8.23;;;;;;;9.57;56.91;96143.81;10331468;28;20316;-66
2023/03/18 16:47:56;;;;;;;21.10;10.00;;;;;;;9.38;57.77;96167.69;10331567;28;20255;-66
2023/03/18 16:52:56;;;;;;;34.50;17.83;;;;;;;9.15;58.26;96170.91;10331049;28;20539;-66
2023/03/18 16:57:58;;;;;;;20.67;10.10;;;;;;;9.05;58.87;96196.34;10330862;28;20214;-66
2023/03/18 17:02:59;;;;;;;18.13;10.83;;;;;;;8.85;59.93;96206.25;10331730;28;20189;-66
2023/03/18 17:08:00;;;;;;;23.30;12.83;;;;;;;8.80;59.71;96211.97;10330603;28;20241;-66
2023/03/18 17:13:04;;;;;;;18.07;9.63;;;;;;;8.68;59.69;96221.88;10331156;28;20229;-66
2023/03/18 17:18:08;;;;;;;12.50;8.60;;;;;;;8.60;60.28;96215.81;10312546;28;21040;-66
2023/03/18 17:23:14;;;;;;;22.00;9.07;;;;;;;8.47;60.80;96218.81;10395060;22;20248;-64
2023/03/18 17:28:20;;;;;;;16.77;8.07;;;;;;;8.31;61.52;96228.16;10452824;28;20226;-63
2023/03/18 17:33:27;;;;;;;19.97;10.43;;;;;;;8.26;63.09;96269.56;10451585;28;20596;-63
2023/03/18 17:38:29;;;;;;;20.43;10.67;;;;;;;8.10;63.06;96278.13;10451749;28;20745;-61
2023/03/18 17:43:35;;;;;;;19.03;10.00;;;;;;;7.89;64.02;96270.63;10452473;28;20215;-61
2023/03/18 17:48:36;;;;;;;17.23;10.33;;;;;;;7.93;63.61;96271.13;10452056;28;20216;-63
2023/03/18 17:53:48;;;;;;;19.00;10.33;;;;;;;7.85;64.38;96288.34;10451906;28;20365;-63
2023/03/18 17:58:50;;;;;;;27.50;9.00;;;;;;;7.76;64.42;96289.22;10451953;28;20184;-63
2023/03/18 18:03:51;;;;;;;18.07;7.90;;;;;;;7.90;64.19;96293.13;10452003;28;20246;-62
2023/03/18 18:08:51;;;;;;;23.40;11.63;;;;;;;7.87;64.56;96293.41;10449431;28;20310;-63
2023/03/18 18:13:55;;;;;;;21.87;10.37;;;;;;;7.82;64.18;96280.00;10451207;28;20218;-61
2023/03/18 18:18:56;;;;;;;19.63;10.33;;;;;;;7.81;64.06;96263.53;10450559;28;20265;-63
2023/03/18 18:23:56;;;;;;;25.67;10.80;;;;;;;7.91;63.42;96249.59;10450703;28;20778;-60
2023/03/18 18:28:56;;;;;;;21.97;10.77;;;;;;;7.80;63.66;96254.06;10450431;28;20602;-63
2023/03/18 18:33:57;;;;;;;17.70;10.10;;;;;;;7.78;64.13;96268.22;10450360;28;20617;-63
2023/03/18 18:38:57;;;;;;;21.50;10.90;;;;;;;7.67;64.69;96277.09;10449745;28;20950;-61
2023/03/18 18:43:57;;;;;;;22.00;10.07;;;;;;;7.55;64.94;96280.88;10449975;28;20623;-60
2023/03/18 18:48:58;;;;;;;19.00;10.23;;;;;;;7.43;65.61;96288.94;10449986;28;20227;-62
2023/03/18 18:53:59;;;;;;;18.30;10.27;;;;;;;7.24;66.64;96296.84;10449816;28;20215;-60
2023/03/18 18:59:00;;;;;;;18.93;9.40;;;;;;;7.26;66.51;96295.75;10449750;28;20186;-63
2023/03/18 19:04:01;;;;;;;22.13;10.43;;;;;;;7.10;67.76;96306.78;10447994;28;20303;-63
2023/03/18 19:09:16;;;;;;;18.27;10.07;;;;;;;6.99;68.18;96300.97;10449051;28;20215;-62
2023/03/18 19:14:18;;;;;;;20.00;9.03;;;;;;;6.89;68.70;96299.25;10464290;28;20216;-63
2023/03/18 19:19:25;;;;;;;19.33;10.07;;;;;;;6.81;68.86;96311.31;10447827;28;20237;-63
2023/03/18 19:24:34;;;;;;;18.80;9.93;;;;;;;6.78;69.06;96308.06;10446946;28;20250;-62
2023/03/18 19:29:36;;;;;;;19.13;8.03;;;;;;;6.95;68.69;96311.69;10448392;28;20670;-63
2023/03/18 19:34:36;;;;;;;16.70;9.73;;;;;;;7.16;68.17;96302.00;10448588;28;20215;-62
2023/03/18 19:39:36;;;;;;;21.13;10.57;;;;;;;7.41;67.11;96285.66;10447810;28;20207;-63
2023/03/18 19:44:37;;;;;;;18.53;10.27;;;;;;;7.45;66.52;96284.38;10447906;28;20215;-60
2023/03/18 19:49:38;;;;;;;19.07;9.60;;;;;;;7.59;65.40;96271.81;10448018;28;20206;-62
2023/03/18 19:54:38;;;;;;;22.60;10.87;;;;;;;7.59;65.50;96275.22;10447834;28;20595;-63
2023/03/18 19:59:39;;;;;;;19.80;9.97;;;;;;;7.61;65.58;96259.44;10448279;28;20286;-63
2023/03/18 20:04:40;;;;;;;25.87;10.27;;;;;;;7.64;65.22;96269.56;10447142;28;20277;-63
2023/03/18 20:09:40;;;;;;;16.23;8.83;;;;;;;7.58;65.86;96278.81;10448260;28;20278;-61
2023/03/18 20:14:41;;;;;;;15.07;8.63;;;;;;;7.58;65.90;96262.34;10447340;28;20212;-60
2023/03/18 20:19:41;;;;;;;19.40;9.63;;;;;;;7.55;66.22;96260.88;10447444;28;20279;-63
2023/03/18 20:24:41;;;;;;;14.50;7.23;;;;;;;7.46;66.67;96269.59;10447130;28;20286;-63
2023/03/18 20:29:43;;;;;;;18.93;10.40;;;;;;;7.38;66.76;96278.13;10448423;28;20196;-63
2023/03/18 20:34:45;;;;;;;20.60;10.40;;;;;;;7.24;67.16;96270.81;10454873;28;20208;-62
2023/03/18 20:39:46;;;;;;;19.47;10.50;;;;;;;7.13;67.70;96275.25;10453621;28;20196;-63
2023/03/18 20:44:47;;;;;;;20.90;9.90;;;;;;;7.08;67.91;96281.88;10454386;28;20239;-60
2023/03/18 20:49:47;;;;;;;17.27;9.77;;;;;;;7.04;67.77;96273.50;10454213;28;20188;-63
2023/03/18 20:54:47;;;;;;;19.73;10.40;;;;;;;7.22;67.30;96272.75;10453782;28;20212;-62
2023/03/18 20:59:48;;;;;;;14.03;7.17;;;;;;;7.39;66.82;96265.91;10454328;28;20271;-60
2023/03/18 21:04:48;;;;;;;20.97;9.87;;;;;;;7.36;66.56;96274.03;10453543;28;20207;-63
2023/03/18 21:09:49;;;;;;;16.53;8.93;;;;;;;7.38;66.24;96257.28;10453991;28;20249;-60
2023/03/18 21:14:49;;;;;;;18.80;9.77;;;;;;;7.39;66.16;96258.09;10453615;28;20218;-61
2023/03/18 21:19:51;;;;;;;16.30;7.70;;;;;;;7.49;65.48;96253.66;10453386;28;20189;-63
2023/03/18 21:24:52;;;;;;;20.20;9.90;;;;;;;7.75;64.67;96225.03;10453186;28;20246;-62
2023/03/18 21:29:54;;;;;;;26.37;10.67;;;;;;;7.83;64.39;96217.25;10452861;28;20546;-62
2023/03/18 21:34:55;;;;;;;21.47;10.83;;;;;;;7.90;63.76;96219.25;10452945;28;20216;-62
2023/03/18 21:39:56;;;;;;;17.53;9.90;;;;;;;7.94;63.81;96210.19;10452245;28;20241;-62
2023/03/18 21:44:56;;;;;;;19.67;11.17;;;;;;;7.91;63.64;96202.66;10451624;28;20690;-63
2023/03/18 21:49:56;;;;;;;20.90;9.97;;;;;;;7.89;63.46;96196.75;10452547;28;20760;-60
2023/03/18 21:54:57;;;;;;;19.47;9.67;;;;;;;7.90;63.52;96182.75;10452603;28;20963;-63
2023/03/18 21:59:57;;;;;;;17.40;9.60;;;;;;;7.85;63.60;96191.84;10452111;28;20688;-63
2023/03/18 22:05:00;;;;;;;18.70;9.80;;;;;;;7.70;64.12;96209.00;10451893;28;20219;-63
2023/03/18 22:10:00;;;;;;;24.83;11.27;;;;;;;7.64;64.18;96215.66;10451478;28;20232;-63
2023/03/18 22:15:01;;;;;;;13.90;8.33;;;;;;;7.68;64.06;96209.16;10451238;28;20302;-61
2023/03/18 22:20:01;;;;;;;19.63;9.37;;;;;;;7.81;63.84;96219.22;10450691;28;20206;-62
2023/03/18 22:25:02;;;;;;;17.80;10.07;;;;;;;7.83;64.07;96214.66;10450647;28;20281;-62
2023/03/18 22:30:03;;;;;;;15.07;8.40;;;;;;;7.74;64.18;96209.53;10450654;28;20184;-60
2023/03/18 22:35:06;;;;;;;17.47;9.33;;;;;;;7.73;64.50;96208.69;10450316;28;20718;-63
2023/03/18 22:40:09;;;;;;;19.27;10.23;;;;;;;7.57;65.01;96219.81;10450467;28;20203;-59
2023/03/18 22:45:22;;;;;;;19.67;11.00;;;;;;;7.49;65.69;96228.41;10465268;28;20576;-63
2023/03/18 22:50:24;;;;;;;15.50;9.60;;;;;;;7.49;65.18;96233.59;10450136;28;20200;-61
2023/03/18 22:55:25;;;;;;;18.20;10.37;;;;;;;7.44;65.76;96237.63;10449480;28;20216;-62
2023/03/18 23:00:35;;;;;;;18.60;8.90;;;;;;;7.73;64.07;96215.72;10447958;28;20202;-63
2023/03/18 23:05:35;;;;;;;19.37;10.23;;;;;;;7.86;63.49;96198.69;10439152;28;20230;-62
2023/03/18 23:10:36;;;;;;;22.83;10.10;;;;;;;7.66;64.47;96211.09;10449417;28;20196;-62
2023/03/18 23:15:36;;;;;;;15.80;8.87;;;;;;;7.44;65.54;96224.59;10448823;28;20589;-59
2023/03/18 23:20:37;;;;;;;18.93;9.73;;;;;;;7.43;65.65;96222.97;10448608;28;20196;-60
2023/03/18 23:25:39;;;;;;;19.27;9.97;;;;;;;7.51;65.50;96225.63;10432750;22;20342;-54
2023/03/18 23:30:41;;;;;;;18.10;9.13;;;;;;;7.36;66.20;96232.34;10411358;28;20203;-56
2023/03/18 23:35:42;;;;;;;18.73;8.93;;;;;;;7.39;66.24;96229.44;10409716;28;20208;-57
2023/03/18 23:40:43;;;;;;;17.37;9.23;;;;;;;7.37;66.30;96234.78;10411043;28;20246;-55